sensor_id;sensor_type;location;lat;lon;timestamp;temperature;humidity
11836;DHT22;5977;51.972;7.640;2023-06-14T00:02:04;19.80;51.80
11836;DHT22;5977;51.972;7.640;2023-06-14T00:04:35;19.70;52.10
11836;DHT22;5977;51.972;7.640;2023-06-14T00:07:06;19.70;51.90
11836;DHT22;5977;51.972;7.640;2023-06-14T00:09:37;19.50;52.10
11836;DHT22;5977;51.972;7.640;2023-06-14T00:12:06;19.50;52.40
11836;DHT22;5977;51.972;7.640;2023-06-14T00:14:35;19.50;52.70
11836;DHT22;5977;51.972;7.640;2023-06-14T00:17:03;19.50;52.50
11836;DHT22;5977;51.972;7.640;2023-06-14T00:19:34;19.50;52.50
11836;DHT22;5977;51.972;7.640;2023-06-14T00:22:03;19.50;52.70
11836;DHT22;5977;51.972;7.640;2023-06-14T00:24:33;19.40;52.80
11836;DHT22;5977;51.972;7.640;2023-06-14T00:27:01;19.30;52.90
11836;DHT22;5977;51.972;7.640;2023-06-14T00:29:29;19.30;53.20
11836;DHT22;5977;51.972;7.640;2023-06-14T00:31:56;19.20;53.20
11836;DHT22;5977;51.972;7.640;2023-06-14T00:34:26;19.10;53.40
11836;DHT22;5977;51.972;7.640;2023-06-14T00:36:54;19.10;53.60
11836;DHT22;5977;51.972;7.640;2023-06-14T00:39:22;19.10;53.90
11836;DHT22;5977;51.972;7.640;2023-06-14T00:41:51;19.10;53.70
11836;DHT22;5977;51.972;7.640;2023-06-14T00:44:20;19.10;54.00
11836;DHT22;5977;51.972;7.640;2023-06-14T00:46:48;19.00;54.10
11836;DHT22;5977;51.972;7.640;2023-06-14T00:49:17;18.90;54.20
11836;DHT22;5977;51.972;7.640;2023-06-14T00:51:45;18.80;54.40
11836;DHT22;5977;51.972;7.640;2023-06-14T00:54:13;18.90;54.60
11836;DHT22;5977;51.972;7.640;2023-06-14T00:56:44;18.90;54.30
11836;DHT22;5977;51.972;7.640;2023-06-14T00:59:13;18.80;54.50
11836;DHT22;5977;51.972;7.640;2023-06-14T01:01:41;18.90;54.60
11836;DHT22;5977;51.972;7.640;2023-06-14T01:04:10;18.80;54.70
11836;DHT22;5977;51.972;7.640;2023-06-14T01:06:45;18.80;54.80
11836;DHT22;5977;51.972;7.640;2023-06-14T01:09:21;18.70;55.10
11836;DHT22;5977;51.972;7.640;2023-06-14T01:11:59;18.60;55.10
11836;DHT22;5977;51.972;7.640;2023-06-14T01:14:33;18.60;55.30
11836;DHT22;5977;51.972;7.640;2023-06-14T01:17:02;18.50;55.30
11836;DHT22;5977;51.972;7.640;2023-06-14T01:19:30;18.50;56.20
11836;DHT22;5977;51.972;7.640;2023-06-14T01:22:01;18.50;55.70
11836;DHT22;5977;51.972;7.640;2023-06-14T01:24:31;18.60;55.80
11836;DHT22;5977;51.972;7.640;2023-06-14T01:27:02;18.50;55.70
11836;DHT22;5977;51.972;7.640;2023-06-14T01:29:30;18.40;55.80
11836;DHT22;5977;51.972;7.640;2023-06-14T01:32:00;18.50;55.90
11836;DHT22;5977;51.972;7.640;2023-06-14T01:34:30;18.40;56.00
11836;DHT22;5977;51.972;7.640;2023-06-14T01:37:00;18.40;56.20
11836;DHT22;5977;51.972;7.640;2023-06-14T01:39:32;18.40;56.10
11836;DHT22;5977;51.972;7.640;2023-06-14T01:42:01;18.50;56.10
11836;DHT22;5977;51.972;7.640;2023-06-14T01:44:30;18.50;56.10
11836;DHT22;5977;51.972;7.640;2023-06-14T01:47:00;18.40;56.10
11836;DHT22;5977;51.972;7.640;2023-06-14T01:49:28;18.30;56.40
11836;DHT22;5977;51.972;7.640;2023-06-14T01:51:56;18.20;56.60
11836;DHT22;5977;51.972;7.640;2023-06-14T01:54:24;18.30;56.70
11836;DHT22;5977;51.972;7.640;2023-06-14T01:56:54;18.20;56.80
11836;DHT22;5977;51.972;7.640;2023-06-14T01:59:21;18.20;57.00
11836;DHT22;5977;51.972;7.640;2023-06-14T02:01:49;18.10;56.90
11836;DHT22;5977;51.972;7.640;2023-06-14T02:04:18;18.10;57.00
11836;DHT22;5977;51.972;7.640;2023-06-14T02:06:46;18.10;57.20
11836;DHT22;5977;51.972;7.640;2023-06-14T02:09:14;18.10;57.20
11836;DHT22;5977;51.972;7.640;2023-06-14T02:11:42;18.10;57.10
11836;DHT22;5977;51.972;7.640;2023-06-14T02:14:11;18.00;57.50
11836;DHT22;5977;51.972;7.640;2023-06-14T02:16:39;18.00;57.40
11836;DHT22;5977;51.972;7.640;2023-06-14T02:19:15;18.00;57.80
11836;DHT22;5977;51.972;7.640;2023-06-14T02:21:43;17.90;57.90
11836;DHT22;5977;51.972;7.640;2023-06-14T02:24:12;17.90;57.90
11836;DHT22;5977;51.972;7.640;2023-06-14T02:26:41;18.00;57.70
11836;DHT22;5977;51.972;7.640;2023-06-14T02:29:15;17.90;58.00
11836;DHT22;5977;51.972;7.640;2023-06-14T02:31:43;17.80;58.10
11836;DHT22;5977;51.972;7.640;2023-06-14T02:34:13;17.90;58.00
11836;DHT22;5977;51.972;7.640;2023-06-14T02:36:43;17.70;58.30
11836;DHT22;5977;51.972;7.640;2023-06-14T02:39:12;17.80;58.50
11836;DHT22;5977;51.972;7.640;2023-06-14T02:41:40;17.70;58.50
11836;DHT22;5977;51.972;7.640;2023-06-14T02:44:09;17.50;58.70
11836;DHT22;5977;51.972;7.640;2023-06-14T02:46:40;17.60;58.80
11836;DHT22;5977;51.972;7.640;2023-06-14T02:49:07;17.90;58.80
11836;DHT22;5977;51.972;7.640;2023-06-14T02:51:37;17.70;58.80
11836;DHT22;5977;51.972;7.640;2023-06-14T02:54:05;17.70;58.80
11836;DHT22;5977;51.972;7.640;2023-06-14T02:56:33;17.60;58.90
11836;DHT22;5977;51.972;7.640;2023-06-14T02:59:01;17.50;59.10
11836;DHT22;5977;51.972;7.640;2023-06-14T03:01:29;17.50;59.20
11836;DHT22;5977;51.972;7.640;2023-06-14T03:04:06;17.40;59.20
11836;DHT22;5977;51.972;7.640;2023-06-14T03:06:37;17.40;59.50
11836;DHT22;5977;51.972;7.640;2023-06-14T03:09:07;17.30;59.60
11836;DHT22;5977;51.972;7.640;2023-06-14T03:11:38;17.20;60.00
11836;DHT22;5977;51.972;7.640;2023-06-14T03:14:06;17.20;60.00
11836;DHT22;5977;51.972;7.640;2023-06-14T03:16:36;17.30;60.00
11836;DHT22;5977;51.972;7.640;2023-06-14T03:19:06;17.40;59.80
11836;DHT22;5977;51.972;7.640;2023-06-14T03:21:34;17.20;59.90
11836;DHT22;5977;51.972;7.640;2023-06-14T03:24:03;17.20;60.30
11836;DHT22;5977;51.972;7.640;2023-06-14T03:26:33;17.20;60.30
11836;DHT22;5977;51.972;7.640;2023-06-14T03:29:01;17.20;60.20
11836;DHT22;5977;51.972;7.640;2023-06-14T03:31:29;17.10;60.40
11836;DHT22;5977;51.972;7.640;2023-06-14T03:34:01;17.20;60.60
11836;DHT22;5977;51.972;7.640;2023-06-14T03:36:30;17.20;60.50
11836;DHT22;5977;51.972;7.640;2023-06-14T03:39:00;17.30;60.30
11836;DHT22;5977;51.972;7.640;2023-06-14T03:41:28;17.40;60.50
11836;DHT22;5977;51.972;7.640;2023-06-14T03:43:56;17.20;60.20
11836;DHT22;5977;51.972;7.640;2023-06-14T03:46:24;17.30;60.70
11836;DHT22;5977;51.972;7.640;2023-06-14T03:48:52;17.50;60.60
11836;DHT22;5977;51.972;7.640;2023-06-14T03:51:20;17.50;60.30
11836;DHT22;5977;51.972;7.640;2023-06-14T03:53:49;17.30;60.50
11836;DHT22;5977;51.972;7.640;2023-06-14T03:56:37;17.40;60.50
11836;DHT22;5977;51.972;7.640;2023-06-14T03:59:09;17.50;60.80
11836;DHT22;5977;51.972;7.640;2023-06-14T04:01:37;17.80;60.00
11836;DHT22;5977;51.972;7.640;2023-06-14T04:04:14;17.80;59.70
11836;DHT22;5977;51.972;7.640;2023-06-14T04:06:43;17.80;60.10
11836;DHT22;5977;51.972;7.640;2023-06-14T04:09:16;17.50;60.20
11836;DHT22;5977;51.972;7.640;2023-06-14T04:11:45;17.60;60.70
11836;DHT22;5977;51.972;7.640;2023-06-14T04:14:13;17.50;60.70
11836;DHT22;5977;51.972;7.640;2023-06-14T04:16:41;17.50;61.00
11836;DHT22;5977;51.972;7.640;2023-06-14T04:19:09;17.60;60.90
11836;DHT22;5977;51.972;7.640;2023-06-14T04:21:38;17.60;60.40
11836;DHT22;5977;51.972;7.640;2023-06-14T04:24:06;17.90;60.40
11836;DHT22;5977;51.972;7.640;2023-06-14T04:26:44;17.80;60.30
11836;DHT22;5977;51.972;7.640;2023-06-14T04:29:14;18.20;60.30
11836;DHT22;5977;51.972;7.640;2023-06-14T04:31:46;19.30;58.00
11836;DHT22;5977;51.972;7.640;2023-06-14T04:34:14;20.60;55.60
11836;DHT22;5977;51.972;7.640;2023-06-14T04:36:50;21.00;54.10
11836;DHT22;5977;51.972;7.640;2023-06-14T04:39:21;21.40;52.90
11836;DHT22;5977;51.972;7.640;2023-06-14T04:41:50;21.40;52.50
11836;DHT22;5977;51.972;7.640;2023-06-14T04:44:19;22.00;52.10
11836;DHT22;5977;51.972;7.640;2023-06-14T04:46:49;22.40;51.40
11836;DHT22;5977;51.972;7.640;2023-06-14T04:49:21;22.70;50.20
11836;DHT22;5977;51.972;7.640;2023-06-14T04:51:53;22.10;50.50
11836;DHT22;5977;51.972;7.640;2023-06-14T04:54:26;21.90;51.10
11836;DHT22;5977;51.972;7.640;2023-06-14T04:56:55;21.40;52.00
11836;DHT22;5977;51.972;7.640;2023-06-14T04:59:25;21.10;53.00
11836;DHT22;5977;51.972;7.640;2023-06-14T05:01:53;20.90;53.20
11836;DHT22;5977;51.972;7.640;2023-06-14T05:04:23;20.40;54.50
11836;DHT22;5977;51.972;7.640;2023-06-14T05:06:53;19.90;55.90
11836;DHT22;5977;51.972;7.640;2023-06-14T05:09:22;19.60;57.10
11836;DHT22;5977;51.972;7.640;2023-06-14T05:11:50;19.60;57.50
11836;DHT22;5977;51.972;7.640;2023-06-14T05:14:19;19.70;57.50
11836;DHT22;5977;51.972;7.640;2023-06-14T05:16:50;19.70;57.30
11836;DHT22;5977;51.972;7.640;2023-06-14T05:19:18;19.80;57.70
11836;DHT22;5977;51.972;7.640;2023-06-14T05:21:47;19.90;57.60
11836;DHT22;5977;51.972;7.640;2023-06-14T05:24:15;19.90;56.50
11836;DHT22;5977;51.972;7.640;2023-06-14T05:26:44;19.90;57.30
11836;DHT22;5977;51.972;7.640;2023-06-14T05:29:13;19.50;57.70
11836;DHT22;5977;51.972;7.640;2023-06-14T05:31:42;19.60;57.60
11836;DHT22;5977;51.972;7.640;2023-06-14T05:34:11;19.70;57.50
11836;DHT22;5977;51.972;7.640;2023-06-14T05:36:39;19.80;57.90
11836;DHT22;5977;51.972;7.640;2023-06-14T05:39:07;19.90;57.90
11836;DHT22;5977;51.972;7.640;2023-06-14T05:41:35;19.90;57.20
11836;DHT22;5977;51.972;7.640;2023-06-14T05:44:03;19.60;58.00
11836;DHT22;5977;51.972;7.640;2023-06-14T05:46:31;19.60;58.00
11836;DHT22;5977;51.972;7.640;2023-06-14T05:49:00;19.70;57.80
11836;DHT22;5977;51.972;7.640;2023-06-14T05:51:28;19.90;57.70
11836;DHT22;5977;51.972;7.640;2023-06-14T05:53:56;20.10;57.80
11836;DHT22;5977;51.972;7.640;2023-06-14T05:56:24;20.00;57.50
11836;DHT22;5977;51.972;7.640;2023-06-14T05:58:53;20.10;58.00
11836;DHT22;5977;51.972;7.640;2023-06-14T06:01:20;19.70;57.60
11836;DHT22;5977;51.972;7.640;2023-06-14T06:03:48;19.90;57.60
11836;DHT22;5977;51.972;7.640;2023-06-14T06:06:18;20.20;57.70
11836;DHT22;5977;51.972;7.640;2023-06-14T06:08:46;20.30;57.30
11836;DHT22;5977;51.972;7.640;2023-06-14T06:11:14;20.20;57.00
11836;DHT22;5977;51.972;7.640;2023-06-14T06:13:41;20.00;57.70
11836;DHT22;5977;51.972;7.640;2023-06-14T06:16:09;20.00;57.30
11836;DHT22;5977;51.972;7.640;2023-06-14T06:18:37;20.30;57.40
11836;DHT22;5977;51.972;7.640;2023-06-14T06:21:05;20.30;57.00
11836;DHT22;5977;51.972;7.640;2023-06-14T06:23:35;20.50;56.60
11836;DHT22;5977;51.972;7.640;2023-06-14T06:26:05;20.40;56.80
11836;DHT22;5977;51.972;7.640;2023-06-14T06:28:32;20.60;56.10
11836;DHT22;5977;51.972;7.640;2023-06-14T06:31:00;20.30;56.40
11836;DHT22;5977;51.972;7.640;2023-06-14T06:33:31;19.80;57.50
11836;DHT22;5977;51.972;7.640;2023-06-14T06:35:59;20.30;71.50
11836;DHT22;5977;51.972;7.640;2023-06-14T06:38:27;21.70;65.70
11836;DHT22;5977;51.972;7.640;2023-06-14T06:43:24;23.30;52.90
11836;DHT22;5977;51.972;7.640;2023-06-14T06:45:52;23.80;53.10
11836;DHT22;5977;51.972;7.640;2023-06-14T06:48:20;24.00;54.80
11836;DHT22;5977;51.972;7.640;2023-06-14T06:50:48;24.20;54.80
11836;DHT22;5977;51.972;7.640;2023-06-14T06:53:16;24.30;55.30
11836;DHT22;5977;51.972;7.640;2023-06-14T06:56:02;24.40;59.80
11836;DHT22;5977;51.972;7.640;2023-06-14T07:00:59;24.60;55.60
11836;DHT22;5977;51.972;7.640;2023-06-14T07:03:27;24.70;58.30
11836;DHT22;5977;51.972;7.640;2023-06-14T07:05:54;24.70;59.80
11836;DHT22;5977;51.972;7.640;2023-06-14T07:08:22;24.70;62.10
11836;DHT22;5977;51.972;7.640;2023-06-14T07:10:50;24.70;69.10
11836;DHT22;5977;51.972;7.640;2023-06-14T07:13:20;24.80;65.60
11836;DHT22;5977;51.972;7.640;2023-06-14T07:15:48;24.80;56.30
11836;DHT22;5977;51.972;7.640;2023-06-14T07:18:16;24.90;56.50
11836;DHT22;5977;51.972;7.640;2023-06-14T07:20:44;24.90;56.20
11836;DHT22;5977;51.972;7.640;2023-06-14T07:23:12;24.80;55.60
11836;DHT22;5977;51.972;7.640;2023-06-14T07:25:40;24.90;58.30
11836;DHT22;5977;51.972;7.640;2023-06-14T07:28:08;24.90;58.10
11836;DHT22;5977;51.972;7.640;2023-06-14T07:30:37;24.90;64.60
11836;DHT22;5977;51.972;7.640;2023-06-14T07:33:05;25.00;57.00
11836;DHT22;5977;51.972;7.640;2023-06-14T07:35:35;24.90;57.30
11836;DHT22;5977;51.972;7.640;2023-06-14T07:38:03;25.00;57.70
11836;DHT22;5977;51.972;7.640;2023-06-14T07:40:31;25.00;56.60
11836;DHT22;5977;51.972;7.640;2023-06-14T07:42:58;25.00;58.50
11836;DHT22;5977;51.972;7.640;2023-06-14T07:45:28;25.10;56.60
11836;DHT22;5977;51.972;7.640;2023-06-14T07:47:57;25.00;55.20
11836;DHT22;5977;51.972;7.640;2023-06-14T07:50:25;25.00;54.60
11836;DHT22;5977;51.972;7.640;2023-06-14T07:52:53;25.00;55.60
11836;DHT22;5977;51.972;7.640;2023-06-14T07:55:21;25.10;55.80
11836;DHT22;5977;51.972;7.640;2023-06-14T07:57:49;25.10;55.70
11836;DHT22;5977;51.972;7.640;2023-06-14T08:00:18;25.10;56.00
11836;DHT22;5977;51.972;7.640;2023-06-14T08:02:46;25.20;60.90
11836;DHT22;5977;51.972;7.640;2023-06-14T08:17:41;25.20;80.70
11836;DHT22;5977;51.972;7.640;2023-06-14T08:30:07;25.70;82.60
11836;DHT22;5977;51.972;7.640;2023-06-14T08:42:41;25.30;80.10
11836;DHT22;5977;51.972;7.640;2023-06-14T08:45:10;25.40;76.30
11836;DHT22;5977;51.972;7.640;2023-06-14T08:47:38;25.50;79.00
11836;DHT22;5977;51.972;7.640;2023-06-14T09:30:37;25.70;77.40
11836;DHT22;5977;51.972;7.640;2023-06-14T09:33:05;25.80;75.10
11836;DHT22;5977;51.972;7.640;2023-06-14T09:35:33;25.90;72.90
11836;DHT22;5977;51.972;7.640;2023-06-14T09:38:01;25.90;72.10
11836;DHT22;5977;51.972;7.640;2023-06-14T09:40:34;25.80;71.90
11836;DHT22;5977;51.972;7.640;2023-06-14T09:43:06;25.80;72.70
11836;DHT22;5977;51.972;7.640;2023-06-14T09:50:36;25.80;51.10
11836;DHT22;5977;51.972;7.640;2023-06-14T09:53:06;25.80;51.50
11836;DHT22;5977;51.972;7.640;2023-06-14T09:55:36;25.80;51.50
11836;DHT22;5977;51.972;7.640;2023-06-14T09:58:05;25.90;51.60
11836;DHT22;5977;51.972;7.640;2023-06-14T10:00:36;25.90;51.70
11836;DHT22;5977;51.972;7.640;2023-06-14T10:03:08;25.80;51.60
11836;DHT22;5977;51.972;7.640;2023-06-14T10:05:41;25.90;51.60
11836;DHT22;5977;51.972;7.640;2023-06-14T10:08:13;25.90;51.70
11836;DHT22;5977;51.972;7.640;2023-06-14T10:10:43;26.00;51.70
11836;DHT22;5977;51.972;7.640;2023-06-14T10:13:12;25.90;51.80
11836;DHT22;5977;51.972;7.640;2023-06-14T10:15:49;25.90;52.30
11836;DHT22;5977;51.972;7.640;2023-06-14T10:18:24;26.00;51.70
11836;DHT22;5977;51.972;7.640;2023-06-14T10:21:01;26.20;52.30
11836;DHT22;5977;51.972;7.640;2023-06-14T10:23:33;26.50;53.70
11836;DHT22;5977;51.972;7.640;2023-06-14T10:26:03;26.70;53.80
11836;DHT22;5977;51.972;7.640;2023-06-14T10:28:31;26.70;53.80
11836;DHT22;5977;51.972;7.640;2023-06-14T10:31:08;26.70;54.60
11836;DHT22;5977;51.972;7.640;2023-06-14T10:33:40;26.70;54.90
11836;DHT22;5977;51.972;7.640;2023-06-14T10:36:26;26.80;56.10
11836;DHT22;5977;51.972;7.640;2023-06-14T10:38:59;26.80;55.90
11836;DHT22;5977;51.972;7.640;2023-06-14T10:41:28;26.80;56.70
11836;DHT22;5977;51.972;7.640;2023-06-14T10:44:30;26.80;57.40
11836;DHT22;5977;51.972;7.640;2023-06-14T10:47:00;26.80;57.40
11836;DHT22;5977;51.972;7.640;2023-06-14T10:49:40;26.80;57.90
11836;DHT22;5977;51.972;7.640;2023-06-14T10:52:10;26.90;57.50
11836;DHT22;5977;51.972;7.640;2023-06-14T10:55:14;26.80;58.30
11836;DHT22;5977;51.972;7.640;2023-06-14T10:57:44;26.70;58.00
11836;DHT22;5977;51.972;7.640;2023-06-14T11:00:20;26.70;57.90
11836;DHT22;5977;51.972;7.640;2023-06-14T11:06:00;26.60;59.70
11836;DHT22;5977;51.972;7.640;2023-06-14T11:08:50;26.60;60.30
11836;DHT22;5977;51.972;7.640;2023-06-14T11:11:22;26.60;60.00
11836;DHT22;5977;51.972;7.640;2023-06-14T11:13:51;26.60;61.70
11836;DHT22;5977;51.972;7.640;2023-06-14T11:16:19;26.60;62.30
11836;DHT22;5977;51.972;7.640;2023-06-14T11:18:49;26.70;61.40
11836;DHT22;5977;51.972;7.640;2023-06-14T11:21:17;26.60;61.10
11836;DHT22;5977;51.972;7.640;2023-06-14T11:23:49;26.60;60.70
11836;DHT22;5977;51.972;7.640;2023-06-14T11:26:24;26.60;59.90
11836;DHT22;5977;51.972;7.640;2023-06-14T11:28:57;26.60;60.20
11836;DHT22;5977;51.972;7.640;2023-06-14T11:31:26;26.60;60.00
11836;DHT22;5977;51.972;7.640;2023-06-14T11:33:58;26.60;60.10
11836;DHT22;5977;51.972;7.640;2023-06-14T11:36:27;26.60;60.10
11836;DHT22;5977;51.972;7.640;2023-06-14T11:39:00;26.70;60.00
11836;DHT22;5977;51.972;7.640;2023-06-14T11:41:35;26.70;59.60
11836;DHT22;5977;51.972;7.640;2023-06-14T11:44:04;26.70;59.40
11836;DHT22;5977;51.972;7.640;2023-06-14T11:46:32;26.80;59.50
11836;DHT22;5977;51.972;7.640;2023-06-14T11:49:02;26.70;60.30
11836;DHT22;5977;51.972;7.640;2023-06-14T11:51:32;26.80;59.50
11836;DHT22;5977;51.972;7.640;2023-06-14T11:54:01;26.80;59.60
11836;DHT22;5977;51.972;7.640;2023-06-14T11:56:30;26.80;59.40
11836;DHT22;5977;51.972;7.640;2023-06-14T11:58:59;26.80;59.50
11836;DHT22;5977;51.972;7.640;2023-06-14T12:01:29;26.90;59.60
11836;DHT22;5977;51.972;7.640;2023-06-14T12:03:59;26.80;59.30
11836;DHT22;5977;51.972;7.640;2023-06-14T12:06:29;26.80;59.10
11836;DHT22;5977;51.972;7.640;2023-06-14T12:08:59;26.90;59.30
11836;DHT22;5977;51.972;7.640;2023-06-14T12:11:32;26.90;59.40
11836;DHT22;5977;51.972;7.640;2023-06-14T12:14:02;26.90;59.30
11836;DHT22;5977;51.972;7.640;2023-06-14T12:16:31;26.90;60.00
11836;DHT22;5977;51.972;7.640;2023-06-14T12:19:00;26.90;59.90
11836;DHT22;5977;51.972;7.640;2023-06-14T12:21:31;26.90;59.70
11836;DHT22;5977;51.972;7.640;2023-06-14T12:23:59;26.90;59.50
11836;DHT22;5977;51.972;7.640;2023-06-14T12:26:27;26.90;59.80
11836;DHT22;5977;51.972;7.640;2023-06-14T12:28:56;26.90;59.90
11836;DHT22;5977;51.972;7.640;2023-06-14T12:31:24;26.90;59.50
11836;DHT22;5977;51.972;7.640;2023-06-14T12:33:53;26.90;59.80
11836;DHT22;5977;51.972;7.640;2023-06-14T12:36:21;26.90;60.00
11836;DHT22;5977;51.972;7.640;2023-06-14T12:38:50;26.90;59.80
11836;DHT22;5977;51.972;7.640;2023-06-14T12:41:20;26.90;60.70
11836;DHT22;5977;51.972;7.640;2023-06-14T12:43:50;26.90;60.20
11836;DHT22;5977;51.972;7.640;2023-06-14T12:46:18;26.90;60.50
11836;DHT22;5977;51.972;7.640;2023-06-14T12:48:46;27.00;60.90
11836;DHT22;5977;51.972;7.640;2023-06-14T12:51:14;26.90;60.90
11836;DHT22;5977;51.972;7.640;2023-06-14T12:53:41;26.90;61.30
11836;DHT22;5977;51.972;7.640;2023-06-14T12:56:12;27.00;61.50
11836;DHT22;5977;51.972;7.640;2023-06-14T12:58:40;27.00;62.20
11836;DHT22;5977;51.972;7.640;2023-06-14T13:01:08;27.00;62.40
11836;DHT22;5977;51.972;7.640;2023-06-14T13:03:36;27.00;63.40
11836;DHT22;5977;51.972;7.640;2023-06-14T13:06:04;27.00;63.80
11836;DHT22;5977;51.972;7.640;2023-06-14T13:08:32;27.00;64.10
11836;DHT22;5977;51.972;7.640;2023-06-14T13:11:00;27.00;63.60
11836;DHT22;5977;51.972;7.640;2023-06-14T13:13:29;27.10;63.80
11836;DHT22;5977;51.972;7.640;2023-06-14T13:15:58;27.10;64.60
11836;DHT22;5977;51.972;7.640;2023-06-14T13:18:26;27.00;65.00
11836;DHT22;5977;51.972;7.640;2023-06-14T13:20:54;27.10;64.60
11836;DHT22;5977;51.972;7.640;2023-06-14T13:23:22;27.10;65.20
11836;DHT22;5977;51.972;7.640;2023-06-14T13:25:50;27.10;65.60
11836;DHT22;5977;51.972;7.640;2023-06-14T13:28:18;27.10;65.50
11836;DHT22;5977;51.972;7.640;2023-06-14T13:30:48;27.20;65.70
11836;DHT22;5977;51.972;7.640;2023-06-14T13:33:16;27.10;65.10
11836;DHT22;5977;51.972;7.640;2023-06-14T13:35:44;27.10;65.00
11836;DHT22;5977;51.972;7.640;2023-06-14T13:38:12;27.10;65.20
11836;DHT22;5977;51.972;7.640;2023-06-14T13:40:41;27.20;65.40
11836;DHT22;5977;51.972;7.640;2023-06-14T13:43:09;27.20;65.60
11836;DHT22;5977;51.972;7.640;2023-06-14T13:45:37;27.10;65.80
11836;DHT22;5977;51.972;7.640;2023-06-14T13:50:35;26.70;59.70
11836;DHT22;5977;51.972;7.640;2023-06-14T13:55:31;25.60;49.70
11836;DHT22;5977;51.972;7.640;2023-06-14T13:57:59;25.50;51.20
11836;DHT22;5977;51.972;7.640;2023-06-14T14:00:27;25.30;50.90
11836;DHT22;5977;51.972;7.640;2023-06-14T14:02:55;25.30;51.20
11836;DHT22;5977;51.972;7.640;2023-06-14T14:05:25;25.40;50.20
11836;DHT22;5977;51.972;7.640;2023-06-14T14:07:56;25.60;53.70
11836;DHT22;5977;51.972;7.640;2023-06-14T14:10:24;25.90;53.10
11836;DHT22;5977;51.972;7.640;2023-06-14T14:12:53;25.70;49.50
11836;DHT22;5977;51.972;7.640;2023-06-14T14:15:21;25.40;49.30
11836;DHT22;5977;51.972;7.640;2023-06-14T14:17:49;25.20;49.80
11836;DHT22;5977;51.972;7.640;2023-06-14T14:20:18;25.30;50.30
11836;DHT22;5977;51.972;7.640;2023-06-14T14:22:47;25.50;50.50
11836;DHT22;5977;51.972;7.640;2023-06-14T14:25:15;25.40;49.10
11836;DHT22;5977;51.972;7.640;2023-06-14T14:27:43;25.10;48.80
11836;DHT22;5977;51.972;7.640;2023-06-14T14:30:12;25.00;49.10
11836;DHT22;5977;51.972;7.640;2023-06-14T14:32:41;24.90;49.60
11836;DHT22;5977;51.972;7.640;2023-06-14T14:35:10;24.90;49.00
11836;DHT22;5977;51.972;7.640;2023-06-14T14:37:38;25.30;50.80
11836;DHT22;5977;51.972;7.640;2023-06-14T14:40:08;25.40;52.00
11836;DHT22;5977;51.972;7.640;2023-06-14T14:42:37;25.60;50.10
11836;DHT22;5977;51.972;7.640;2023-06-14T14:45:07;25.50;50.00
11836;DHT22;5977;51.972;7.640;2023-06-14T14:47:35;25.50;51.50
11836;DHT22;5977;51.972;7.640;2023-06-14T14:50:03;25.80;50.60
11836;DHT22;5977;51.972;7.640;2023-06-14T14:52:35;25.80;49.50
11836;DHT22;5977;51.972;7.640;2023-06-14T14:55:03;25.70;47.40
11836;DHT22;5977;51.972;7.640;2023-06-14T14:57:33;25.60;47.00
11836;DHT22;5977;51.972;7.640;2023-06-14T15:00:03;25.50;46.50
11836;DHT22;5977;51.972;7.640;2023-06-14T15:02:32;25.50;47.40
11836;DHT22;5977;51.972;7.640;2023-06-14T15:05:00;25.50;47.40
11836;DHT22;5977;51.972;7.640;2023-06-14T15:07:30;25.50;47.30
11836;DHT22;5977;51.972;7.640;2023-06-14T15:10:00;25.50;48.50
11836;DHT22;5977;51.972;7.640;2023-06-14T15:12:28;25.70;47.50
11836;DHT22;5977;51.972;7.640;2023-06-14T15:14:58;25.60;46.80
11836;DHT22;5977;51.972;7.640;2023-06-14T15:17:26;25.30;46.60
11836;DHT22;5977;51.972;7.640;2023-06-14T15:19:54;25.10;47.00
11836;DHT22;5977;51.972;7.640;2023-06-14T15:22:22;25.10;46.90
11836;DHT22;5977;51.972;7.640;2023-06-14T15:24:50;25.30;47.40
11836;DHT22;5977;51.972;7.640;2023-06-14T15:27:18;25.50;47.70
11836;DHT22;5977;51.972;7.640;2023-06-14T15:29:46;25.80;47.60
11836;DHT22;5977;51.972;7.640;2023-06-14T15:32:18;25.70;47.30
11836;DHT22;5977;51.972;7.640;2023-06-14T15:34:47;25.40;48.70
11836;DHT22;5977;51.972;7.640;2023-06-14T15:37:15;25.00;47.90
11836;DHT22;5977;51.972;7.640;2023-06-14T15:39:43;24.80;48.50
11836;DHT22;5977;51.972;7.640;2023-06-14T15:42:11;24.70;50.90
11836;DHT22;5977;51.972;7.640;2023-06-14T15:44:39;25.00;48.70
11836;DHT22;5977;51.972;7.640;2023-06-14T15:47:08;25.10;48.20
11836;DHT22;5977;51.972;7.640;2023-06-14T15:49:37;25.30;48.50
11836;DHT22;5977;51.972;7.640;2023-06-14T15:52:06;25.50;50.00
11836;DHT22;5977;51.972;7.640;2023-06-14T15:54:34;25.30;48.40
11836;DHT22;5977;51.972;7.640;2023-06-14T15:57:02;25.00;48.60
11836;DHT22;5977;51.972;7.640;2023-06-14T15:59:30;24.90;48.70
11836;DHT22;5977;51.972;7.640;2023-06-14T16:01:58;24.80;49.40
11836;DHT22;5977;51.972;7.640;2023-06-14T16:04:26;24.80;49.30
11836;DHT22;5977;51.972;7.640;2023-06-14T16:06:55;25.00;48.70
11836;DHT22;5977;51.972;7.640;2023-06-14T16:09:23;25.20;49.20
11836;DHT22;5977;51.972;7.640;2023-06-14T16:11:51;25.50;48.70
11836;DHT22;5977;51.972;7.640;2023-06-14T16:14:20;25.50;48.00
11836;DHT22;5977;51.972;7.640;2023-06-14T16:16:48;25.60;49.00
11836;DHT22;5977;51.972;7.640;2023-06-14T16:19:19;25.50;48.20
11836;DHT22;5977;51.972;7.640;2023-06-14T16:21:47;25.50;48.40
11836;DHT22;5977;51.972;7.640;2023-06-14T16:24:17;25.30;48.60
11836;DHT22;5977;51.972;7.640;2023-06-14T16:26:45;25.10;48.60
11836;DHT22;5977;51.972;7.640;2023-06-14T16:29:14;24.90;48.30
11836;DHT22;5977;51.972;7.640;2023-06-14T16:31:41;24.90;48.00
11836;DHT22;5977;51.972;7.640;2023-06-14T16:34:09;25.00;48.90
11836;DHT22;5977;51.972;7.640;2023-06-14T16:36:38;25.20;48.80
11836;DHT22;5977;51.972;7.640;2023-06-14T16:39:06;25.30;48.50
11836;DHT22;5977;51.972;7.640;2023-06-14T16:41:35;25.40;48.50
11836;DHT22;5977;51.972;7.640;2023-06-14T16:44:03;25.50;48.00
11836;DHT22;5977;51.972;7.640;2023-06-14T16:46:32;25.30;48.50
11836;DHT22;5977;51.972;7.640;2023-06-14T16:49:01;25.50;48.30
11836;DHT22;5977;51.972;7.640;2023-06-14T16:51:29;25.30;46.90
11836;DHT22;5977;51.972;7.640;2023-06-14T16:53:57;25.20;47.40
11836;DHT22;5977;51.972;7.640;2023-06-14T16:56:25;25.00;47.30
11836;DHT22;5977;51.972;7.640;2023-06-14T16:58:56;25.20;47.90
11836;DHT22;5977;51.972;7.640;2023-06-14T17:01:25;25.20;47.70
11836;DHT22;5977;51.972;7.640;2023-06-14T17:03:53;25.20;47.70
11836;DHT22;5977;51.972;7.640;2023-06-14T17:06:21;25.10;48.20
11836;DHT22;5977;51.972;7.640;2023-06-14T17:08:50;25.30;48.10
11836;DHT22;5977;51.972;7.640;2023-06-14T17:11:20;25.00;48.00
11836;DHT22;5977;51.972;7.640;2023-06-14T17:13:50;25.10;49.10
11836;DHT22;5977;51.972;7.640;2023-06-14T17:16:20;25.10;48.00
11836;DHT22;5977;51.972;7.640;2023-06-14T17:18:48;25.10;47.90
11836;DHT22;5977;51.972;7.640;2023-06-14T17:21:15;25.10;48.90
11836;DHT22;5977;51.972;7.640;2023-06-14T17:23:43;25.20;48.80
11836;DHT22;5977;51.972;7.640;2023-06-14T17:26:12;25.30;48.80
11836;DHT22;5977;51.972;7.640;2023-06-14T17:28:39;25.10;47.90
11836;DHT22;5977;51.972;7.640;2023-06-14T17:31:07;25.00;48.40